createdAt,value
2017-07-26T00:00:52.054Z,0
2017-07-26T00:01:52.023Z,0
2017-07-26T00:02:52.014Z,0
2017-07-26T00:03:51.983Z,0
2017-07-26T00:04:51.981Z,0
2017-07-26T00:05:51.953Z,0
2017-07-26T00:06:51.631Z,0
2017-07-26T00:07:51.923Z,0
2017-07-26T00:08:51.907Z,0
2017-07-26T00:09:51.586Z,0
2017-07-26T00:10:51.876Z,0
2017-07-26T00:11:51.861Z,0
2017-07-26T00:12:51.827Z,0
2017-07-26T00:13:51.820Z,0
2017-07-26T00:14:51.806Z,0
2017-07-26T00:15:51.794Z,0
2017-07-26T00:16:51.782Z,0
2017-07-26T00:17:51.755Z,0
2017-07-26T00:18:51.735Z,0
2017-07-26T00:19:51.715Z,0
2017-07-26T00:20:51.708Z,0
2017-07-26T00:21:51.681Z,0
2017-07-26T00:22:51.659Z,0
2017-07-26T00:23:51.346Z,0
2017-07-26T00:24:51.641Z,0
2017-07-26T00:25:51.641Z,0
2017-07-26T00:26:51.597Z,0
2017-07-26T00:27:51.580Z,0
2017-07-26T00:28:51.562Z,0
2017-07-26T00:29:51.259Z,0
2017-07-26T00:30:51.534Z,0
2017-07-26T00:31:51.519Z,0
2017-07-26T00:32:51.524Z,0
2017-07-26T00:33:51.500Z,0
2017-07-26T00:34:51.164Z,0
2017-07-26T00:35:51.151Z,0
2017-07-26T00:36:51.445Z,0
2017-07-26T00:37:51.119Z,0
2017-07-26T00:38:51.398Z,0
2017-07-26T00:39:51.395Z,0
2017-07-26T00:40:51.364Z,0
2017-07-26T00:41:51.356Z,0
2017-07-26T00:42:51.339Z,0
2017-07-26T00:43:51.318Z,0
2017-07-26T00:44:51.305Z,0
2017-07-26T00:45:51.288Z,0
2017-07-26T00:46:51.283Z,0
2017-07-26T00:47:51.247Z,0
2017-07-26T00:48:51.240Z,0
2017-07-26T00:49:51.220Z,0
2017-07-26T00:50:51.187Z,0
2017-07-26T00:51:51.207Z,0
2017-07-26T00:52:51.176Z,0
2017-07-26T00:53:51.146Z,0
2017-07-26T00:54:51.154Z,0
2017-07-26T00:55:51.143Z,0
2017-07-26T00:56:51.102Z,0
2017-07-26T00:57:50.785Z,0
2017-07-26T00:58:50.772Z,0
2017-07-26T00:59:51.050Z,0
2017-07-26T01:00:51.037Z,0
2017-07-26T01:01:51.022Z,0
2017-07-26T01:02:51.015Z,0
2017-07-26T01:03:50.994Z,0
2017-07-26T01:04:50.968Z,0
2017-07-26T01:05:50.973Z,0
2017-07-26T01:06:50.649Z,0
2017-07-26T01:07:50.625Z,0
2017-07-26T01:08:50.909Z,0
2017-07-26T01:09:50.578Z,0
2017-07-26T01:10:50.577Z,0
2017-07-26T01:11:50.855Z,0
2017-07-26T01:12:50.848Z,0
2017-07-26T01:13:50.839Z,0
2017-07-26T01:14:50.839Z,0
2017-07-26T01:15:50.785Z,0
2017-07-26T01:16:50.782Z,0
2017-07-26T01:17:50.766Z,0
2017-07-26T01:18:50.431Z,0
2017-07-26T01:19:50.737Z,0
2017-07-26T01:20:50.706Z,0
2017-07-26T01:21:50.709Z,0
2017-07-26T01:22:50.684Z,0
2017-07-26T01:23:50.677Z,0
2017-07-26T01:24:50.665Z,0
2017-07-26T01:25:50.629Z,0
2017-07-26T01:26:50.618Z,0
2017-07-26T01:27:50.606Z,0
2017-07-26T01:28:50.590Z,0
2017-07-26T01:29:50.574Z,0
2017-07-26T01:30:50.550Z,0
2017-07-26T01:31:50.231Z,0
2017-07-26T01:32:50.527Z,0
2017-07-26T01:33:50.502Z,0
2017-07-26T01:34:49.901Z,0
2017-07-26T01:35:50.177Z,0
2017-07-26T01:36:50.155Z,0
2017-07-26T01:37:50.439Z,0
2017-07-26T01:38:50.128Z,0
2017-07-26T01:39:50.414Z,0
2017-07-26T01:40:56.095Z,0
2017-07-26T01:41:50.370Z,0
2017-07-26T01:42:50.557Z,0
2017-07-26T01:43:50.380Z,0
2017-07-26T01:44:50.312Z,0
2017-07-26T01:45:50.303Z,0
2017-07-26T01:46:50.285Z,0
2017-07-26T01:47:50.279Z,0
2017-07-26T01:48:50.233Z,0
2017-07-26T01:49:50.232Z,0
2017-07-26T01:50:50.228Z,0
2017-07-26T01:51:50.210Z,0
2017-07-26T01:52:49.873Z,0
2017-07-26T01:53:50.177Z,0
2017-07-26T01:54:50.149Z,0
2017-07-26T01:55:50.134Z,0
2017-07-26T01:56:49.817Z,0
2017-07-26T01:57:50.100Z,0
2017-07-26T01:58:50.094Z,0
2017-07-26T01:59:50.076Z,0
2017-07-26T02:00:50.047Z,0
2017-07-26T02:01:50.029Z,0
2017-07-26T02:02:49.714Z,0
2017-07-26T02:03:49.998Z,0
2017-07-26T02:04:50.007Z,0
2017-07-26T02:05:49.974Z,0
2017-07-26T02:06:49.949Z,0
2017-07-26T02:07:49.933Z,0
2017-07-26T02:08:49.932Z,0
2017-07-26T02:09:49.917Z,0
2017-07-26T02:10:49.887Z,0
2017-07-26T02:11:49.874Z,0
2017-07-26T02:12:49.854Z,0
2017-07-26T02:13:49.526Z,0
2017-07-26T02:14:49.803Z,0
2017-07-26T02:15:49.805Z,0
2017-07-26T02:16:49.794Z,0
2017-07-26T02:17:49.982Z,0
2017-07-26T02:18:49.451Z,0
2017-07-26T02:19:49.431Z,0
2017-07-26T02:20:49.423Z,0
2017-07-26T02:21:49.916Z,0
2017-07-26T02:22:49.684Z,0
2017-07-26T02:23:49.668Z,0
2017-07-26T02:24:49.640Z,0
2017-07-26T02:25:49.625Z,0
2017-07-26T02:26:49.600Z,0
2017-07-26T02:27:49.606Z,0
2017-07-26T02:28:49.585Z,0
2017-07-26T02:29:49.581Z,0
2017-07-26T02:30:49.545Z,0
2017-07-26T02:31:49.548Z,0
2017-07-26T02:32:49.214Z,0
2017-07-26T02:33:49.485Z,0
2017-07-26T02:34:49.473Z,0
2017-07-26T02:35:49.481Z,0
2017-07-26T02:36:49.157Z,0
2017-07-26T02:37:49.131Z,0
2017-07-26T02:38:49.414Z,0
2017-07-26T02:39:49.405Z,0
2017-07-26T02:40:49.087Z,0
2017-07-26T02:41:49.383Z,0
2017-07-26T02:42:49.333Z,0
2017-07-26T02:43:49.332Z,0
2017-07-26T02:44:49.316Z,0
2017-07-26T02:45:49.308Z,0
2017-07-26T02:46:49.279Z,0
2017-07-26T02:47:49.249Z,0
2017-07-26T02:48:49.249Z,0
2017-07-26T02:49:49.227Z,0
2017-07-26T02:50:49.198Z,0
2017-07-26T02:51:49.196Z,0
2017-07-26T02:52:49.175Z,0
2017-07-26T02:53:49.167Z,0
2017-07-26T02:54:48.831Z,0
2017-07-26T02:55:49.119Z,0
2017-07-26T02:56:49.309Z,0
2017-07-26T02:57:49.099Z,0
2017-07-26T02:58:48.766Z,0
2017-07-26T02:59:49.055Z,0
2017-07-26T03:00:49.043Z,0
2017-07-26T03:01:48.711Z,0
2017-07-26T03:02:48.696Z,0
2017-07-26T03:03:48.988Z,0
2017-07-26T03:04:48.986Z,0
2017-07-26T03:05:48.954Z,0
2017-07-26T03:06:48.931Z,0
2017-07-26T03:07:48.918Z,0
2017-07-26T03:08:52.744Z,0
2017-07-26T03:09:48.878Z,0
2017-07-26T03:10:48.881Z,0
2017-07-26T03:11:48.865Z,0
2017-07-26T03:12:48.829Z,0
2017-07-26T03:13:50.611Z,0
2017-07-26T03:14:48.493Z,0
2017-07-26T03:15:48.784Z,0
2017-07-26T03:16:48.760Z,0
2017-07-26T03:17:48.744Z,0
2017-07-26T03:18:48.725Z,0
2017-07-26T03:19:48.707Z,0
2017-07-26T03:20:48.689Z,0
2017-07-26T03:21:48.671Z,0
2017-07-26T03:22:48.688Z,0
2017-07-26T03:23:48.642Z,0
2017-07-26T03:24:48.617Z,0
2017-07-26T03:25:48.586Z,0
2017-07-26T03:26:48.585Z,0
2017-07-26T03:27:48.578Z,0
2017-07-26T03:28:48.544Z,0
2017-07-26T03:30:02.171Z,0
2017-07-26T03:30:48.224Z,0
2017-07-26T03:31:48.514Z,0
2017-07-26T03:32:48.185Z,0
2017-07-26T03:33:48.670Z,0
2017-07-26T03:34:48.441Z,0
2017-07-26T03:35:48.424Z,0
2017-07-26T03:36:48.415Z,0
2017-07-26T03:37:48.405Z,0
2017-07-26T03:38:48.383Z,5
2017-07-26T03:39:48.370Z,5
2017-07-26T03:40:48.328Z,5
2017-07-26T03:41:48.326Z,5
2017-07-26T03:42:48.311Z,5
2017-07-26T03:43:47.978Z,5
2017-07-26T03:44:48.274Z,5
2017-07-26T03:45:48.247Z,5
2017-07-26T03:46:48.244Z,10
2017-07-26T03:47:48.213Z,10
2017-07-26T03:48:48.200Z,10
2017-07-26T03:49:47.890Z,10
2017-07-26T03:50:48.179Z,15
2017-07-26T03:51:48.146Z,15
2017-07-26T03:52:48.128Z,15
2017-07-26T03:53:48.105Z,15
2017-07-26T03:54:48.101Z,15
2017-07-26T03:55:48.070Z,20
2017-07-26T03:56:47.758Z,20
2017-07-26T03:57:48.025Z,20
2017-07-26T03:59:01.929Z,25
2017-07-26T03:59:48.021Z,25
2017-07-26T04:00:47.996Z,30
2017-07-26T04:01:47.988Z,30
2017-07-26T04:03:02.562Z,35
2017-07-26T04:03:48.145Z,35
2017-07-26T04:04:47.915Z,35
2017-07-26T04:05:47.911Z,35
2017-07-26T04:06:48.308Z,35
2017-07-26T04:07:48.070Z,35
2017-07-26T04:08:47.865Z,35
2017-07-26T04:09:47.843Z,35
2017-07-26T04:10:47.827Z,40
2017-07-26T04:11:47.790Z,40
2017-07-26T04:12:47.778Z,40
2017-07-26T04:13:47.766Z,40
2017-07-26T04:14:47.745Z,40
2017-07-26T04:15:47.723Z,45
2017-07-26T04:16:47.392Z,45
2017-07-26T04:17:47.696Z,45
2017-07-26T04:18:47.386Z,50
2017-07-26T04:19:47.651Z,55
2017-07-26T04:20:47.632Z,55
2017-07-26T04:21:47.634Z,55
2017-07-26T04:22:47.619Z,60
2017-07-26T04:23:47.574Z,60
2017-07-26T04:24:47.571Z,60
2017-07-26T04:25:47.542Z,60
2017-07-26T04:26:47.530Z,60
2017-07-26T04:27:47.525Z,60
2017-07-26T04:28:47.487Z,60
2017-07-26T04:29:47.483Z,60
2017-07-26T04:30:47.163Z,60
2017-07-26T04:31:47.650Z,60
2017-07-26T04:32:47.425Z,60
2017-07-26T04:33:47.401Z,55
2017-07-26T04:34:47.103Z,55
2017-07-26T04:35:47.372Z,50
2017-07-26T04:37:01.238Z,55
2017-07-26T04:37:47.332Z,55
2017-07-26T04:38:47.010Z,55
2017-07-26T04:39:47.013Z,60
2017-07-26T04:40:47.289Z,65
2017-07-26T04:41:47.252Z,70
2017-07-26T04:42:46.934Z,75
2017-07-26T04:43:47.241Z,80
2017-07-26T04:44:47.206Z,80
2017-07-26T04:45:47.204Z,85
2017-07-26T04:46:47.169Z,90
2017-07-26T04:47:47.183Z,95
2017-07-26T04:48:47.146Z,90
2017-07-26T04:49:47.126Z,90
2017-07-26T04:50:47.118Z,90
2017-07-26T04:51:47.082Z,85
2017-07-26T04:52:47.094Z,90
2017-07-26T04:53:47.049Z,90
2017-07-26T04:54:47.030Z,95
2017-07-26T04:55:47.011Z,95
2017-07-26T04:56:46.717Z,100
2017-07-26T04:57:46.991Z,105
2017-07-26T04:58:46.661Z,110
2017-07-26T04:59:46.955Z,130
2017-07-26T05:00:46.923Z,150
2017-07-26T05:01:46.902Z,170
2017-07-26T05:02:46.902Z,200
2017-07-26T05:03:46.871Z,220
2017-07-26T05:04:46.856Z,230
2017-07-26T05:05:46.827Z,215
2017-07-26T05:06:46.817Z,205
2017-07-26T05:07:46.821Z,195
2017-07-26T05:08:46.769Z,200
2017-07-26T05:09:46.978Z,200
2017-07-26T05:10:46.959Z,210
2017-07-26T05:11:46.726Z,205
2017-07-26T05:12:46.714Z,200
2017-07-26T05:13:46.691Z,205
2017-07-26T05:14:46.872Z,230
2017-07-26T05:15:46.658Z,255
2017-07-26T05:16:46.654Z,275
2017-07-26T05:17:46.615Z,300
2017-07-26T05:18:46.286Z,315
2017-07-26T05:19:46.587Z,320
2017-07-26T05:20:46.559Z,325
2017-07-26T05:21:46.573Z,340
2017-07-26T05:22:46.535Z,340
2017-07-26T05:23:46.526Z,325
2017-07-26T05:24:46.489Z,315
2017-07-26T05:25:46.482Z,310
2017-07-26T05:26:46.461Z,310
2017-07-26T05:27:46.434Z,315
2017-07-26T05:28:46.420Z,300
2017-07-26T05:29:46.410Z,290
2017-07-26T05:30:46.078Z,285
2017-07-26T05:31:46.387Z,275
2017-07-26T05:32:45.754Z,305
2017-07-26T05:33:46.334Z,365
2017-07-26T05:34:46.325Z,430
2017-07-26T05:35:45.986Z,440
2017-07-26T05:36:45.965Z,400
2017-07-26T05:37:46.253Z,320
2017-07-26T05:38:46.462Z,255
2017-07-26T05:39:46.212Z,220
2017-07-26T05:40:45.900Z,215
2017-07-26T05:41:46.205Z,215
2017-07-26T05:42:45.880Z,210
2017-07-26T05:43:46.359Z,210
2017-07-26T05:44:46.144Z,235
2017-07-26T05:45:46.127Z,255
2017-07-26T05:46:46.097Z,285
2017-07-26T05:47:46.082Z,320
2017-07-26T05:48:46.068Z,345
2017-07-26T05:49:46.042Z,375
2017-07-26T05:50:46.026Z,405
2017-07-26T05:51:46.008Z,420
2017-07-26T05:52:45.997Z,445
2017-07-26T05:53:45.985Z,450
2017-07-26T05:54:45.955Z,440
2017-07-26T05:55:45.943Z,440
2017-07-26T05:56:45.905Z,445
2017-07-26T05:57:45.906Z,460
2017-07-26T05:58:45.884Z,490
2017-07-26T05:59:45.880Z,505
2017-07-26T06:00:45.849Z,545
2017-07-26T06:01:45.819Z,605
2017-07-26T06:02:45.508Z,645
2017-07-26T06:03:45.784Z,670
2017-07-26T06:04:45.778Z,660
2017-07-26T06:05:45.758Z,620
2017-07-26T06:06:45.736Z,575
2017-07-26T06:07:45.412Z,530
2017-07-26T06:08:45.702Z,525
2017-07-26T06:09:45.683Z,500
2017-07-26T06:10:45.658Z,485
2017-07-26T06:11:45.348Z,485
2017-07-26T06:12:45.639Z,480
2017-07-26T06:13:45.610Z,470
2017-07-26T06:14:45.590Z,480
2017-07-26T06:15:45.584Z,495
2017-07-26T06:16:45.551Z,525
2017-07-26T06:17:45.534Z,560
2017-07-26T06:18:45.553Z,580
2017-07-26T06:19:45.525Z,605
2017-07-26T06:20:45.500Z,610
2017-07-26T06:21:45.502Z,620
2017-07-26T06:22:45.141Z,605
2017-07-26T06:23:45.463Z,590
2017-07-26T06:24:45.409Z,615
2017-07-26T06:25:45.103Z,620
2017-07-26T06:26:45.079Z,620
2017-07-26T06:27:45.355Z,645
2017-07-26T06:28:44.742Z,630
2017-07-26T06:29:45.337Z,615
2017-07-26T06:30:45.297Z,610
2017-07-26T06:31:45.290Z,600
2017-07-26T06:32:45.277Z,605
2017-07-26T06:33:45.254Z,605
2017-07-26T06:34:44.638Z,600
2017-07-26T06:35:45.223Z,580
2017-07-26T06:36:44.909Z,545
2017-07-26T06:37:44.874Z,530
2017-07-26T06:38:45.156Z,510
2017-07-26T06:39:44.832Z,500
2017-07-26T06:40:45.123Z,475
2017-07-26T06:41:45.110Z,470
2017-07-26T06:42:45.097Z,460
2017-07-26T06:43:45.070Z,445
2017-07-26T06:44:44.745Z,440
2017-07-26T06:45:44.730Z,450
2017-07-26T06:46:44.721Z,455
2017-07-26T06:47:44.999Z,470
2017-07-26T06:48:44.990Z,480
2017-07-26T06:49:44.980Z,485
2017-07-26T06:50:44.951Z,505
2017-07-26T06:51:44.934Z,520
2017-07-26T06:52:44.903Z,535
2017-07-26T06:53:44.583Z,535
2017-07-26T06:54:44.572Z,530
2017-07-26T06:55:44.894Z,535
2017-07-26T06:56:44.852Z,520
2017-07-26T06:57:44.812Z,485
2017-07-26T06:58:44.801Z,510
2017-07-26T06:59:44.769Z,520
2017-07-26T07:00:44.761Z,505
2017-07-26T07:01:44.742Z,505
2017-07-26T07:02:44.725Z,510
2017-07-26T07:03:44.401Z,525
2017-07-26T07:04:44.379Z,535
2017-07-26T07:05:44.655Z,525
2017-07-26T07:06:44.353Z,515
2017-07-26T07:07:44.337Z,490
2017-07-26T07:08:44.630Z,480
2017-07-26T07:09:44.310Z,475
2017-07-26T07:10:44.585Z,465
2017-07-26T07:11:44.573Z,460
2017-07-26T07:12:44.558Z,470
2017-07-26T07:13:44.527Z,485
2017-07-26T07:14:44.205Z,500
2017-07-26T07:15:44.484Z,510
2017-07-26T07:16:43.862Z,540
2017-07-26T07:17:44.161Z,560
2017-07-26T07:18:44.130Z,585
2017-07-26T07:19:44.427Z,620
2017-07-26T07:20:44.396Z,640
2017-07-26T07:21:44.083Z,660
2017-07-26T07:22:44.374Z,675
2017-07-26T07:23:44.047Z,685
2017-07-26T07:24:44.340Z,690
2017-07-26T07:25:44.326Z,705
2017-07-26T07:26:44.007Z,695
2017-07-26T07:27:43.676Z,695
2017-07-26T07:28:44.256Z,700
2017-07-26T07:29:44.255Z,715
2017-07-26T07:30:44.235Z,740
2017-07-26T07:31:44.220Z,780
2017-07-26T07:32:44.196Z,785
2017-07-26T07:33:44.182Z,780
2017-07-26T07:34:44.149Z,780
2017-07-26T07:35:44.128Z,765
2017-07-26T07:36:44.136Z,755
2017-07-26T07:37:44.099Z,745
2017-07-26T07:38:44.083Z,725
2017-07-26T07:39:44.072Z,700
2017-07-26T07:40:44.051Z,700
2017-07-26T07:41:44.049Z,705
2017-07-26T07:42:44.020Z,690
2017-07-26T07:43:44.001Z,665
2017-07-26T07:44:43.985Z,650
2017-07-26T07:45:43.966Z,645
2017-07-26T07:46:43.956Z,650
2017-07-26T07:47:43.950Z,655
2017-07-26T07:48:43.610Z,660
2017-07-26T07:49:43.900Z,660
2017-07-26T07:50:43.877Z,655
2017-07-26T07:51:43.556Z,655
2017-07-26T07:52:43.847Z,645
2017-07-26T07:53:43.539Z,655
2017-07-26T07:54:43.813Z,660
2017-07-26T07:55:43.845Z,680
2017-07-26T07:56:43.775Z,705
2017-07-26T07:57:43.747Z,765
2017-07-26T07:58:43.440Z,795
2017-07-26T07:59:43.423Z,815
2017-07-26T08:00:43.396Z,840
2017-07-26T08:01:43.393Z,855
2017-07-26T08:02:43.385Z,815
2017-07-26T08:03:43.669Z,770
2017-07-26T08:04:43.348Z,760
2017-07-26T08:05:43.647Z,740
2017-07-26T08:06:43.288Z,740
2017-07-26T08:07:43.294Z,735
2017-07-26T08:08:43.575Z,735
2017-07-26T08:09:43.249Z,760
2017-07-26T08:10:43.550Z,770
2017-07-26T08:11:43.525Z,765
2017-07-26T08:12:43.509Z,745
2017-07-26T08:13:43.488Z,740
2017-07-26T08:14:43.467Z,740
2017-07-26T08:15:43.473Z,765
2017-07-26T08:16:43.442Z,830
2017-07-26T08:17:43.439Z,905
2017-07-26T08:18:43.424Z,940
2017-07-26T08:19:43.394Z,975
2017-07-26T08:20:42.920Z,980
2017-07-26T08:21:42.892Z,955
2017-07-26T08:22:42.887Z,915
2017-07-26T08:23:42.871Z,905
2017-07-26T08:24:42.850Z,920
2017-07-26T08:25:42.835Z,930
2017-07-26T08:26:42.819Z,970
2017-07-26T08:27:42.500Z,1005
2017-07-26T08:28:42.793Z,1085
2017-07-26T08:29:42.768Z,1125
2017-07-26T08:30:42.759Z,1160
2017-07-26T08:31:42.728Z,1165
2017-07-26T08:32:42.721Z,1200
2017-07-26T08:33:42.686Z,1185
2017-07-26T08:34:42.717Z,1130
2017-07-26T08:35:42.369Z,1095
2017-07-26T08:36:42.644Z,1090
2017-07-26T08:37:42.656Z,1090
2017-07-26T08:38:42.309Z,1090
2017-07-26T08:39:42.292Z,1165
2017-07-26T08:40:42.573Z,1190
2017-07-26T08:41:42.563Z,1210
2017-07-26T08:42:42.549Z,1275
2017-07-26T08:43:42.557Z,1310
2017-07-26T08:44:42.975Z,1365
2017-07-26T08:45:42.506Z,1350
2017-07-26T08:46:42.952Z,1345
2017-07-26T08:47:42.927Z,1385
2017-07-26T08:48:42.454Z,1365
2017-07-26T08:49:42.450Z,1320
2017-07-26T08:50:42.899Z,1235
2017-07-26T08:51:42.872Z,1185
2017-07-26T08:52:42.555Z,1150
2017-07-26T08:53:42.383Z,1145
2017-07-26T08:54:42.355Z,1105
2017-07-26T08:55:42.809Z,1100
2017-07-26T08:56:42.778Z,1080
2017-07-26T08:57:42.757Z,1085
2017-07-26T08:58:42.753Z,1115
2017-07-26T08:59:42.719Z,1155
2017-07-26T09:00:42.712Z,1195
2017-07-26T09:01:42.698Z,1305
2017-07-26T09:02:42.687Z,1270
2017-07-26T09:03:42.655Z,1275
2017-07-26T09:04:42.641Z,1330
2017-07-26T09:05:42.636Z,1280
2017-07-26T09:06:42.628Z,1215
2017-07-26T09:07:42.585Z,1230
2017-07-26T09:08:42.592Z,1240
2017-07-26T09:09:42.568Z,1310
2017-07-26T09:10:42.557Z,1315
2017-07-26T09:11:42.084Z,1370
2017-07-26T09:12:42.523Z,1360
2017-07-26T09:13:42.513Z,1370
2017-07-26T09:14:42.487Z,1315
2017-07-26T09:15:42.469Z,1265
2017-07-26T09:16:42.464Z,1255
2017-07-26T09:17:42.433Z,1295
2017-07-26T09:18:42.423Z,1370
2017-07-26T09:19:42.414Z,1385
2017-07-26T09:20:42.392Z,1335
2017-07-26T09:21:42.372Z,1315
2017-07-26T09:22:42.362Z,1325
2017-07-26T09:23:42.359Z,1375
2017-07-26T09:24:42.329Z,1435
2017-07-26T09:25:41.855Z,1420
2017-07-26T09:26:41.840Z,1365
2017-07-26T09:27:42.285Z,1325
2017-07-26T09:28:41.980Z,1350
2017-07-26T09:29:41.950Z,1360
2017-07-26T09:30:42.238Z,1410
2017-07-26T09:31:42.221Z,1405
2017-07-26T09:32:42.195Z,1455
2017-07-26T09:33:42.196Z,1430
2017-07-26T09:34:42.167Z,1355
2017-07-26T09:35:42.148Z,1345
2017-07-26T09:36:42.145Z,1345
2017-07-26T09:37:41.524Z,1330
2017-07-26T09:38:42.101Z,1315
2017-07-26T09:39:42.086Z,1260
2017-07-26T09:40:42.067Z,1300
2017-07-26T09:41:42.051Z,1295
2017-07-26T09:42:42.037Z,1270
2017-07-26T09:43:41.721Z,1270
2017-07-26T09:44:41.699Z,1215
2017-07-26T09:45:42.000Z,1230
2017-07-26T09:46:41.689Z,1265
2017-07-26T09:47:41.948Z,1300
2017-07-26T09:48:41.940Z,1310
2017-07-26T09:49:41.624Z,1380
2017-07-26T09:50:41.912Z,1340
2017-07-26T09:51:41.898Z,1440
2017-07-26T09:52:41.563Z,1460
2017-07-26T09:53:41.560Z,1425
2017-07-26T09:54:41.831Z,1380
2017-07-26T09:55:41.832Z,1370
2017-07-26T09:56:41.797Z,1380
2017-07-26T09:57:41.795Z,1385
2017-07-26T09:58:41.774Z,1400
2017-07-26T09:59:41.755Z,1390
2017-07-26T10:00:41.756Z,1350
2017-07-26T10:01:41.731Z,1340
2017-07-26T10:02:41.706Z,1390
2017-07-26T10:03:41.696Z,1465
2017-07-26T10:04:41.674Z,1565
2017-07-26T10:05:41.660Z,1515
2017-07-26T10:06:41.646Z,1435
2017-07-26T10:07:41.622Z,1400
2017-07-26T10:08:41.620Z,1345
2017-07-26T10:09:41.593Z,1370
2017-07-26T10:10:41.579Z,1400
2017-07-26T10:11:41.552Z,1390
2017-07-26T10:12:41.547Z,1405
2017-07-26T10:13:41.523Z,1410
2017-07-26T10:14:41.500Z,1410
2017-07-26T10:15:41.209Z,1385
2017-07-26T10:16:41.481Z,1320
2017-07-26T10:17:41.156Z,1265
2017-07-26T10:18:41.450Z,1255
2017-07-26T10:19:41.129Z,1355
2017-07-26T10:20:41.421Z,1420
2017-07-26T10:21:41.101Z,1445
2017-07-26T10:22:41.391Z,1435
2017-07-26T10:23:41.051Z,1395
2017-07-26T10:24:41.054Z,1390
2017-07-26T10:25:41.352Z,1420
2017-07-26T10:26:41.019Z,1455
2017-07-26T10:27:41.319Z,1455
2017-07-26T10:28:41.281Z,1450
2017-07-26T10:29:40.966Z,1425
2017-07-26T10:30:41.275Z,1380
2017-07-26T10:31:41.232Z,1360
2017-07-26T10:32:41.229Z,1345
2017-07-26T10:33:41.211Z,1365
2017-07-26T10:34:41.195Z,1425
2017-07-26T10:35:41.174Z,1510
2017-07-26T10:36:41.147Z,1545
2017-07-26T10:37:41.143Z,1585
2017-07-26T10:38:41.137Z,1630
2017-07-26T10:39:41.118Z,1630
2017-07-26T10:40:40.793Z,1595
2017-07-26T10:41:41.083Z,1560
2017-07-26T10:42:41.066Z,1565
2017-07-26T10:43:41.049Z,1615
2017-07-26T10:44:41.043Z,1715
2017-07-26T10:45:41.034Z,1685
2017-07-26T10:46:41.024Z,1645
2017-07-26T10:47:40.989Z,1610
2017-07-26T10:48:40.985Z,1555
2017-07-26T10:49:40.647Z,1455
2017-07-26T10:50:40.933Z,1385
2017-07-26T10:51:40.925Z,1415
2017-07-26T10:52:40.626Z,1465
2017-07-26T10:53:40.581Z,1550
2017-07-26T10:54:40.579Z,1605
2017-07-26T10:55:40.565Z,1640
2017-07-26T10:56:40.855Z,1665
2017-07-26T10:57:40.831Z,1760
2017-07-26T10:58:40.826Z,1840
2017-07-26T10:59:40.810Z,1855
2017-07-26T11:00:40.796Z,1835
2017-07-26T11:01:40.478Z,1805
2017-07-26T11:02:40.771Z,1730
2017-07-26T11:03:40.744Z,1630
2017-07-26T11:04:40.739Z,1605
2017-07-26T11:05:40.729Z,1635
2017-07-26T11:06:40.697Z,1655
2017-07-26T11:07:40.690Z,1665
2017-07-26T11:08:40.659Z,1735
2017-07-26T11:09:40.652Z,1820
2017-07-26T11:10:40.636Z,1835
2017-07-26T11:11:40.612Z,1805
2017-07-26T11:12:40.603Z,1770
2017-07-26T11:13:40.597Z,1730
2017-07-26T11:14:40.575Z,1695
2017-07-26T11:15:40.554Z,1670
2017-07-26T11:16:40.534Z,1725
2017-07-26T11:17:40.515Z,1790
2017-07-26T11:18:40.522Z,1805
2017-07-26T11:19:40.499Z,1805
2017-07-26T11:20:40.487Z,1815
2017-07-26T11:21:40.486Z,1795
2017-07-26T11:22:40.462Z,1755
2017-07-26T11:23:40.444Z,1700
2017-07-26T11:24:40.430Z,1695
2017-07-26T11:25:40.395Z,1655
2017-07-26T11:26:40.401Z,1630
2017-07-26T11:27:40.382Z,1605
2017-07-26T11:28:40.361Z,1625
2017-07-26T11:29:40.049Z,1605
2017-07-26T11:30:40.028Z,1620
2017-07-26T11:31:40.037Z,1610
2017-07-26T11:32:40.012Z,1620
2017-07-26T11:33:39.992Z,1630
2017-07-26T11:34:40.291Z,1635
2017-07-26T11:35:40.273Z,1625
2017-07-26T11:36:40.250Z,1700
2017-07-26T11:37:40.228Z,1760
2017-07-26T11:38:40.210Z,1680
2017-07-26T11:39:40.207Z,1595
2017-07-26T11:40:40.189Z,1505
2017-07-26T11:41:40.175Z,1460
2017-07-26T11:42:40.149Z,1460
2017-07-26T11:43:40.153Z,1525
2017-07-26T11:44:39.534Z,1495
2017-07-26T11:45:40.121Z,1470
2017-07-26T11:46:40.110Z,1410
2017-07-26T11:47:40.109Z,1350
2017-07-26T11:48:40.055Z,1395
2017-07-26T11:49:40.054Z,1480
2017-07-26T11:50:40.030Z,1530
2017-07-26T11:51:40.030Z,1505
2017-07-26T11:52:40.020Z,1450
2017-07-26T11:53:39.697Z,1520
2017-07-26T11:54:39.387Z,1555
2017-07-26T11:55:39.674Z,1485
2017-07-26T11:56:41.389Z,1485
2017-07-26T11:57:39.621Z,1435
2017-07-26T11:58:39.921Z,1440
2017-07-26T11:59:39.897Z,1555
2017-07-26T12:00:39.882Z,1590
2017-07-26T12:01:39.867Z,1545
2017-07-26T12:02:39.854Z,1570
2017-07-26T12:03:39.854Z,1550
2017-07-26T12:04:39.528Z,1540
2017-07-26T12:05:39.823Z,1545
2017-07-26T12:06:41.221Z,1550
2017-07-26T12:07:39.789Z,1520
2017-07-26T12:08:39.488Z,1495
2017-07-26T12:09:39.457Z,1520
2017-07-26T12:10:39.737Z,1505
2017-07-26T12:11:39.721Z,1475
2017-07-26T12:12:39.419Z,1480
2017-07-26T12:13:39.398Z,1460
2017-07-26T12:14:39.418Z,1520
2017-07-26T12:15:39.356Z,1620
2017-07-26T12:16:39.339Z,1630
2017-07-26T12:17:39.632Z,1640
2017-07-26T12:18:39.633Z,1610
2017-07-26T12:19:39.317Z,1625
2017-07-26T12:20:39.307Z,1570
2017-07-26T12:21:39.567Z,1550
2017-07-26T12:22:39.570Z,1510
2017-07-26T12:23:39.557Z,1475
2017-07-26T12:24:39.227Z,1420
2017-07-26T12:25:39.509Z,1380
2017-07-26T12:26:39.492Z,1370
2017-07-26T12:27:39.484Z,1370
2017-07-26T12:28:39.483Z,1385
2017-07-26T12:29:39.160Z,1375
2017-07-26T12:30:39.467Z,1350
2017-07-26T12:31:39.432Z,1305
2017-07-26T12:32:39.608Z,1255
2017-07-26T12:33:39.079Z,1270
2017-07-26T12:34:39.089Z,1230
2017-07-26T12:35:39.065Z,1230
2017-07-26T12:36:39.054Z,1230
2017-07-26T12:37:39.047Z,1210
2017-07-26T12:38:39.019Z,1220
2017-07-26T12:39:39.307Z,1195
2017-07-26T12:40:39.296Z,1190
2017-07-26T12:41:39.276Z,1200
2017-07-26T12:42:39.269Z,1260
2017-07-26T12:43:39.261Z,1275
2017-07-26T12:44:39.244Z,1275
2017-07-26T12:45:38.919Z,1265
2017-07-26T12:46:39.194Z,1260
2017-07-26T12:47:38.890Z,1245
2017-07-26T12:48:39.167Z,1225
2017-07-26T12:49:39.147Z,1225
2017-07-26T12:50:39.133Z,1205
2017-07-26T12:51:38.838Z,1220
2017-07-26T12:52:38.800Z,1255
2017-07-26T12:53:38.786Z,1265
2017-07-26T12:54:39.089Z,1260
2017-07-26T12:55:39.060Z,1260
2017-07-26T12:56:39.046Z,1250
2017-07-26T12:57:39.031Z,1245
2017-07-26T12:58:38.713Z,1210
2017-07-26T12:59:39.013Z,1130
2017-07-26T13:00:38.677Z,1055
2017-07-26T13:01:38.989Z,1010
2017-07-26T13:02:38.650Z,1010
2017-07-26T13:03:38.951Z,1020
2017-07-26T13:04:38.932Z,990
2017-07-26T13:05:38.908Z,960
2017-07-26T13:06:38.606Z,970
2017-07-26T13:07:38.562Z,955
2017-07-26T13:08:38.876Z,935
2017-07-26T13:09:38.537Z,920
2017-07-26T13:10:38.841Z,945
2017-07-26T13:11:38.815Z,985
2017-07-26T13:12:38.499Z,1055
2017-07-26T13:13:38.777Z,1110
2017-07-26T13:14:38.776Z,1105
2017-07-26T13:15:38.757Z,1060
2017-07-26T13:16:38.741Z,1045
2017-07-26T13:17:38.718Z,1050
2017-07-26T13:18:38.414Z,1085
2017-07-26T13:19:38.700Z,1105
2017-07-26T13:20:38.680Z,1075
2017-07-26T13:21:38.660Z,1040
2017-07-26T13:22:38.333Z,1035
2017-07-26T13:23:38.631Z,1035
2017-07-26T13:24:38.608Z,1045
2017-07-26T13:25:38.602Z,1070
2017-07-26T13:26:38.593Z,1130
2017-07-26T13:27:38.573Z,1135
2017-07-26T13:28:38.558Z,1130
2017-07-26T13:29:38.536Z,1145
2017-07-26T13:30:38.521Z,1110
2017-07-26T13:31:38.530Z,1090
2017-07-26T13:32:38.181Z,1055
2017-07-26T13:33:38.486Z,1040
2017-07-26T13:34:38.448Z,1010
2017-07-26T13:35:38.438Z,1010
2017-07-26T13:36:38.463Z,1035
2017-07-26T13:37:38.416Z,1050
2017-07-26T13:38:38.412Z,1040
2017-07-26T13:39:38.386Z,1015
2017-07-26T13:40:38.399Z,990
2017-07-26T13:41:38.370Z,960
2017-07-26T13:42:38.340Z,970
2017-07-26T13:43:37.726Z,995
2017-07-26T13:44:38.314Z,1025
2017-07-26T13:45:37.996Z,1010
2017-07-26T13:46:38.270Z,1010
2017-07-26T13:47:38.268Z,1000
2017-07-26T13:48:38.255Z,980
2017-07-26T13:49:38.252Z,970
2017-07-26T13:50:38.213Z,940
2017-07-26T13:51:37.898Z,940
2017-07-26T13:52:37.889Z,945
2017-07-26T13:53:37.580Z,970